createdAt,value
2022-08-03T00:00:33.694Z,25.46
2022-08-03T00:03:01.617Z,25.43
2022-08-03T00:05:29.153Z,25.38
2022-08-03T00:07:56.611Z,25.35
2022-08-03T00:10:24.141Z,25.26
2022-08-03T00:12:51.623Z,25.30
2022-08-03T00:15:22.196Z,25.41
2022-08-03T00:17:54.117Z,25.44
2022-08-03T00:20:22.127Z,25.47
2022-08-03T00:22:50.202Z,25.30
2022-08-03T00:25:18.387Z,25.21
2022-08-03T00:27:48.403Z,25.14
2022-08-03T00:30:18.175Z,25.12
2022-08-03T00:32:45.773Z,25.13
2022-08-03T00:35:36.570Z,25.14
2022-08-03T00:38:01.442Z,24.92
2022-08-03T00:40:29.176Z,24.80
2022-08-03T00:43:05.633Z,24.87
2022-08-03T00:45:35.658Z,24.47
2022-08-03T00:48:07.474Z,24.35
2022-08-03T00:50:55.002Z,24.30
2022-08-03T00:53:28.541Z,24.23
2022-08-03T00:56:33.714Z,24.47
2022-08-03T00:59:39.583Z,24.51
2022-08-03T01:02:44.701Z,24.52
2022-08-03T01:05:49.475Z,24.51
2022-08-03T01:08:54.644Z,24.56
2022-08-03T01:11:59.778Z,24.41
2022-08-03T01:14:43.996Z,24.29
2022-08-03T01:17:29.461Z,24.02
2022-08-03T01:20:35.006Z,24.17
2022-08-03T01:23:14.745Z,23.95
2022-08-03T01:26:20.106Z,24.07
2022-08-03T01:29:25.662Z,24.03
2022-08-03T01:33:00.030Z,24.12
2022-08-03T01:36:21.289Z,24.21
2022-08-03T01:39:00.269Z,24.15
2022-08-03T01:41:34.054Z,24.11
2022-08-03T01:44:39.583Z,24.25
2022-08-03T01:47:44.586Z,23.92
2022-08-03T01:50:49.650Z,23.88
2022-08-03T01:53:23.300Z,24.01
2022-08-03T01:55:54.197Z,24.02
2022-08-03T01:58:25.801Z,24.07
2022-08-03T02:00:59.283Z,23.88
2022-08-03T02:03:28.898Z,24.06
2022-08-03T02:06:58.408Z,23.81
2022-08-03T02:08:45.363Z,23.71
2022-08-03T02:11:13.151Z,23.64
2022-08-03T02:13:40.714Z,23.72
2022-08-03T02:16:09.186Z,23.58
2022-08-03T02:18:39.558Z,23.53
2022-08-03T02:21:11.271Z,23.73
2022-08-03T02:23:38.929Z,23.68
2022-08-03T02:26:12.664Z,23.63
2022-08-03T02:28:45.506Z,23.91
2022-08-03T02:31:17.150Z,23.74
2022-08-03T02:33:49.706Z,23.88
2022-08-03T02:36:21.151Z,23.92
2022-08-03T02:38:52.814Z,23.95
2022-08-03T02:41:36.143Z,23.95
2022-08-03T02:44:07.892Z,23.81
2022-08-03T02:46:39.324Z,23.98
2022-08-03T02:49:40.863Z,23.80
2022-08-03T02:51:55.977Z,23.78
2022-08-03T02:54:25.086Z,23.55
2022-08-03T02:56:57.625Z,23.70
2022-08-03T02:59:25.935Z,23.64
2022-08-03T03:01:59.702Z,23.47
2022-08-03T03:04:33.031Z,23.15
2022-08-03T03:07:01.867Z,23.12
2022-08-03T03:09:41.571Z,23.30
2022-08-03T03:12:13.240Z,23.31
2022-08-03T03:14:41.249Z,23.36
2022-08-03T03:17:10.538Z,23.14
2022-08-03T03:19:39.742Z,22.76
2022-08-03T03:22:09.035Z,22.67
2022-08-03T03:24:43.611Z,22.82
2022-08-03T03:27:11.708Z,23.02
2022-08-03T03:29:44.695Z,23.02
2022-08-03T03:32:13.630Z,23.11
2022-08-03T03:34:42.523Z,22.80
2022-08-03T03:37:14.423Z,23.07
2022-08-03T03:39:42.061Z,23.06
2022-08-03T03:42:10.083Z,22.72
2022-08-03T03:44:40.724Z,22.89
2022-08-03T03:47:08.326Z,22.99
2022-08-03T03:49:36.760Z,23.10
2022-08-03T03:52:04.548Z,22.89
2022-08-03T03:54:45.625Z,22.91
2022-08-03T03:57:13.815Z,22.91
2022-08-03T03:59:42.483Z,22.81
2022-08-03T04:02:11.422Z,22.89
2022-08-03T04:05:03.716Z,22.96
2022-08-03T04:08:00.858Z,22.58
2022-08-03T04:10:50.410Z,22.60
2022-08-03T04:13:18.477Z,22.64
2022-08-03T04:15:47.795Z,22.60
2022-08-03T04:18:15.932Z,22.63
2022-08-03T04:20:46.301Z,22.47
2022-08-03T04:23:19.783Z,22.49
2022-08-03T04:25:49.336Z,22.38
2022-08-03T04:28:30.963Z,22.79
2022-08-03T04:31:03.761Z,23.34
2022-08-03T04:33:35.015Z,23.33
2022-08-03T04:36:07.517Z,23.42
2022-08-03T04:38:57.161Z,23.41
2022-08-03T04:41:26.495Z,23.49
2022-08-03T04:44:00.126Z,23.43
2022-08-03T04:46:39.106Z,22.96
2022-08-03T04:49:14.296Z,23.40
2022-08-03T04:51:42.741Z,23.49
2022-08-03T04:54:13.967Z,23.43
2022-08-03T04:56:42.116Z,23.43
2022-08-03T04:59:10.531Z,23.33
2022-08-03T05:01:38.165Z,23.55
2022-08-03T05:04:05.727Z,23.72
2022-08-03T05:06:45.214Z,23.74
2022-08-03T05:09:16.214Z,23.86
2022-08-03T05:12:04.404Z,24.01
2022-08-03T05:14:33.166Z,23.96
2022-08-03T05:17:03.553Z,23.70
2022-08-03T05:19:33.856Z,23.89
2022-08-03T05:22:01.707Z,24.06
2022-08-03T05:24:29.210Z,23.92
2022-08-03T05:26:56.793Z,23.77
2022-08-03T05:29:24.527Z,24.17
2022-08-03T05:31:52.425Z,24.53
2022-08-03T05:34:20.114Z,24.52
2022-08-03T05:36:47.946Z,24.54
2022-08-03T05:39:21.133Z,24.46
2022-08-03T05:41:50.698Z,24.04
2022-08-03T05:44:18.174Z,23.72
2022-08-03T05:46:45.640Z,23.41
2022-08-03T05:49:13.185Z,23.85
2022-08-03T05:51:40.705Z,24.21
2022-08-03T05:54:08.190Z,23.94
2022-08-03T05:56:35.749Z,24.38
2022-08-03T05:59:22.399Z,24.38
2022-08-03T06:01:51.554Z,24.22
2022-08-03T06:04:19.122Z,23.95
2022-08-03T06:06:47.470Z,23.87
2022-08-03T06:09:15.306Z,24.34
2022-08-03T06:11:42.781Z,24.70
2022-08-03T06:14:13.454Z,24.93
2022-08-03T06:16:41.038Z,25.16
2022-08-03T06:19:10.142Z,25.29
2022-08-03T06:21:39.870Z,25.22
2022-08-03T06:24:08.257Z,25.23
2022-08-03T06:26:35.759Z,25.03
2022-08-03T06:29:03.931Z,25.30
2022-08-03T06:31:32.826Z,25.85
2022-08-03T06:34:31.633Z,26.11
2022-08-03T06:37:01.281Z,25.95
2022-08-03T06:39:30.021Z,26.29
2022-08-03T06:41:58.088Z,26.41
2022-08-03T06:44:26.105Z,26.60
2022-08-03T06:46:55.034Z,26.11
2022-08-03T06:49:22.687Z,26.40
2022-08-03T06:52:06.089Z,26.61
2022-08-03T06:54:36.126Z,26.52
2022-08-03T06:57:04.366Z,27.18
2022-08-03T07:00:10.584Z,26.53
2022-08-03T07:02:20.307Z,26.88
2022-08-03T07:04:48.763Z,27.16
2022-08-03T07:07:17.420Z,27.54
2022-08-03T07:09:57.077Z,27.40
2022-08-03T07:12:29.211Z,27.81
2022-08-03T07:15:01.328Z,27.85
2022-08-03T07:17:37.416Z,28.05
2022-08-03T07:20:11.494Z,28.20
2022-08-03T07:22:39.183Z,28.44
2022-08-03T07:25:07.195Z,28.65
2022-08-03T07:27:35.085Z,28.47
2022-08-03T07:30:02.978Z,28.77
2022-08-03T07:32:33.698Z,29.00
2022-08-03T07:35:08.810Z,29.15
2022-08-03T07:37:54.677Z,29.22
2022-08-03T07:40:30.604Z,29.15
2022-08-03T07:43:00.533Z,29.18
2022-08-03T07:45:31.125Z,29.54
2022-08-03T07:48:00.772Z,29.80
2022-08-03T07:50:28.337Z,30.05
2022-08-03T07:52:57.797Z,30.20
2022-08-03T07:55:26.464Z,29.80
2022-08-03T07:58:04.675Z,30.32
2022-08-03T08:00:32.814Z,30.37
2022-08-03T08:03:00.930Z,30.55
2022-08-03T08:05:29.423Z,30.74
2022-08-03T08:25:53.869Z,30.97
2022-08-03T08:28:32.947Z,31.20
2022-08-03T08:31:01.944Z,31.47
2022-08-03T08:36:17.798Z,31.98
2022-08-03T08:39:23.780Z,31.99
2022-08-03T08:41:53.339Z,32.17
2022-08-03T08:44:21.204Z,32.40
2022-08-03T08:47:26.787Z,32.51
2022-08-03T08:50:32.089Z,32.83
2022-08-03T08:53:37.463Z,32.10
2022-08-03T08:56:43.268Z,31.89
2022-08-03T08:59:56.992Z,32.69
2022-08-03T09:02:29.734Z,33.03
2022-08-03T09:05:55.024Z,32.48
2022-08-03T09:08:23.269Z,33.10
2022-08-03T09:11:53.466Z,33.51
2022-08-03T09:15:15.902Z,33.71
2022-08-03T09:17:50.925Z,33.63
2022-08-03T09:20:24.201Z,33.76
2022-08-03T09:23:51.559Z,34.01
2022-08-03T09:26:23.305Z,34.28
2022-08-03T09:29:28.928Z,34.43
2022-08-03T09:32:02.496Z,34.26
2022-08-03T09:34:30.834Z,34.19
2022-08-03T09:36:58.677Z,34.25
2022-08-03T09:40:04.308Z,34.32
2022-08-03T09:42:35.321Z,34.71
2022-08-03T09:45:03.156Z,34.93
2022-08-03T09:47:32.930Z,34.55
2022-08-03T09:50:06.469Z,34.50
2022-08-03T09:52:50.180Z,34.81
2022-08-03T09:56:30.619Z,34.47
2022-08-03T09:58:14.270Z,35.27
2022-08-03T10:01:32.208Z,34.69
2022-08-03T10:04:04.220Z,34.78
2022-08-03T10:06:32.805Z,35.08
2022-08-03T10:09:11.040Z,35.49
2022-08-03T10:11:42.039Z,35.12
2022-08-03T10:14:18.555Z,35.46
2022-08-03T10:16:46.857Z,35.63
2022-08-03T10:19:15.544Z,35.81
2022-08-03T10:21:49.612Z,36.22
2022-08-03T10:24:17.677Z,36.04
2022-08-03T10:26:49.741Z,36.29
2022-08-03T10:29:22.763Z,35.97
2022-08-03T10:31:57.356Z,36.43
2022-08-03T10:34:27.507Z,36.57
2022-08-03T10:36:59.262Z,36.48
2022-08-03T10:39:30.386Z,36.94
2022-08-03T10:42:25.042Z,36.90
2022-08-03T10:45:08.347Z,36.89
2022-08-03T10:47:36.741Z,36.13
2022-08-03T10:50:08.677Z,36.87
2022-08-03T10:52:41.285Z,36.67
2022-08-03T10:55:58.233Z,36.09
2022-08-03T10:58:37.948Z,36.31
2022-08-03T11:02:00.850Z,36.80
2022-08-03T11:04:31.770Z,36.61
2022-08-03T11:07:23.283Z,37.05
2022-08-03T11:09:51.931Z,37.40
2022-08-03T11:12:32.289Z,37.91
2022-08-03T11:15:04.012Z,36.69
2022-08-03T11:17:33.971Z,36.95
2022-08-03T11:20:14.559Z,37.09
2022-08-03T11:22:49.316Z,37.67
2022-08-03T11:25:54.076Z,37.97
2022-08-03T11:28:30.669Z,38.25
2022-08-03T11:31:49.932Z,38.43
2022-08-03T11:34:18.761Z,38.75
2022-08-03T11:37:26.354Z,38.65
2022-08-03T11:40:33.825Z,39.04
2022-08-03T11:43:44.039Z,39.24
2022-08-03T11:46:29.564Z,39.19
2022-08-03T11:49:09.999Z,38.88
2022-08-03T11:51:40.127Z,39.45
2022-08-03T11:54:08.093Z,39.99
2022-08-03T11:57:13.348Z,40.40
2022-08-03T12:00:18.401Z,41.33
2022-08-03T12:03:18.849Z,41.68
2022-08-03T12:05:51.842Z,41.66
2022-08-03T12:08:41.199Z,40.71
2022-08-03T12:12:05.121Z,41.78
2022-08-03T12:15:28.833Z,43.38
2022-08-03T12:18:52.280Z,44.96
2022-08-03T12:22:17.043Z,46.08
2022-08-03T12:25:41.200Z,46.21
2022-08-03T12:29:05.505Z,46.53
2022-08-03T12:32:31.327Z,45.73
2022-08-03T12:35:04.500Z,42.24
2022-08-03T12:37:32.450Z,44.26
2022-08-03T12:40:56.258Z,44.57
2022-08-03T12:44:21.118Z,45.53
2022-08-03T12:46:58.704Z,46.02
2022-08-03T12:49:26.600Z,47.20
2022-08-03T12:52:50.262Z,47.69
2022-08-03T12:56:14.000Z,48.53
2022-08-03T12:58:43.478Z,50.10
2022-08-03T13:02:09.618Z,50.13
2022-08-03T13:05:36.471Z,51.41
2022-08-03T13:08:05.215Z,52.08
2022-08-03T13:10:35.080Z,51.40
2022-08-03T13:13:04.362Z,52.03
2022-08-03T13:15:33.510Z,52.71
2022-08-03T13:18:05.914Z,49.79
2022-08-03T13:20:36.071Z,51.51
2022-08-03T13:23:03.227Z,52.10
2022-08-03T13:25:30.442Z,51.30
2022-08-03T13:28:03.156Z,52.14
2022-08-03T13:30:32.969Z,52.74
2022-08-03T13:33:03.571Z,52.23
2022-08-03T13:35:30.898Z,50.72
2022-08-03T13:37:58.067Z,51.32
2022-08-03T13:40:30.049Z,46.34
2022-08-03T13:42:58.628Z,46.24
2022-08-03T13:45:27.423Z,47.12
2022-08-03T13:48:34.719Z,46.93
2022-08-03T13:51:21.964Z,49.22
2022-08-03T13:53:51.234Z,50.99
2022-08-03T13:56:18.622Z,51.16
2022-08-03T13:58:48.373Z,51.03
2022-08-03T14:01:15.652Z,52.62
2022-08-03T14:03:43.080Z,52.62
2022-08-03T14:06:11.368Z,53.60
2022-08-03T14:08:41.591Z,53.83
2022-08-03T14:11:08.722Z,53.07
2022-08-03T14:13:35.823Z,53.70
2022-08-03T14:16:03.836Z,53.76
2022-08-03T14:18:33.944Z,54.03
2022-08-03T14:21:07.204Z,52.98
2022-08-03T14:23:37.597Z,53.64
2022-08-03T14:26:12.135Z,53.06
2022-08-03T14:28:39.434Z,52.07
2022-08-03T14:32:09.265Z,51.94
2022-08-03T14:33:59.517Z,51.85
2022-08-03T14:36:26.790Z,53.50
2022-08-03T14:38:56.117Z,53.92
2022-08-03T14:41:25.521Z,52.58
2022-08-03T14:44:01.163Z,52.61
2022-08-03T14:46:29.572Z,52.51
2022-08-03T14:50:30.491Z,52.65
2022-08-03T14:51:51.402Z,53.04
2022-08-03T14:54:21.685Z,51.04
2022-08-03T14:56:48.770Z,52.40
2022-08-03T14:59:15.846Z,52.93
2022-08-03T15:02:04.950Z,51.65
2022-08-03T15:04:33.002Z,51.09
2022-08-03T15:07:03.149Z,52.25
2022-08-03T15:09:30.249Z,51.64
2022-08-03T15:12:00.306Z,51.96
2022-08-03T15:14:32.260Z,52.74
2022-08-03T15:17:00.651Z,52.37
2022-08-03T15:20:03.797Z,50.96
2022-08-03T15:22:16.981Z,51.88
2022-08-03T15:24:48.193Z,49.49
2022-08-03T15:27:15.605Z,46.56
2022-08-03T15:30:05.254Z,48.88
2022-08-03T15:32:39.552Z,49.39
2022-08-03T15:35:07.629Z,49.57
2022-08-03T15:37:35.005Z,50.19
2022-08-03T15:40:02.394Z,50.84
2022-08-03T15:42:34.258Z,50.64
2022-08-03T15:45:01.656Z,51.25
2022-08-03T15:47:28.970Z,49.51
2022-08-03T15:49:56.406Z,48.61
2022-08-03T15:52:23.857Z,48.04
2022-08-03T15:54:53.998Z,49.53
2022-08-03T15:57:24.081Z,49.64
2022-08-03T15:59:53.698Z,49.98
2022-08-03T16:02:21.243Z,50.04
2022-08-03T16:04:48.718Z,50.62
2022-08-03T16:07:15.859Z,50.56
2022-08-03T16:09:43.987Z,49.23
2022-08-03T16:12:16.289Z,49.57
2022-08-03T16:14:54.152Z,48.60
2022-08-03T16:17:24.613Z,48.41
2022-08-03T16:19:55.258Z,46.73
2022-08-03T16:22:24.043Z,43.75
2022-08-03T16:24:56.190Z,43.38
2022-08-03T16:27:58.098Z,42.67
2022-08-03T16:30:15.863Z,42.63
2022-08-03T16:32:45.534Z,42.01
2022-08-03T16:35:19.459Z,42.11
2022-08-03T16:37:56.508Z,41.63
2022-08-03T16:40:25.341Z,39.84
2022-08-03T16:42:53.240Z,40.00
2022-08-03T16:45:22.923Z,39.88
2022-08-03T16:48:01.484Z,39.91
2022-08-03T16:50:35.016Z,39.20
2022-08-03T16:53:09.702Z,39.31
2022-08-03T16:55:49.085Z,38.63
2022-08-03T16:58:24.367Z,37.70
2022-08-03T17:01:24.430Z,37.91
2022-08-03T17:04:03.574Z,37.77
2022-08-03T17:06:45.107Z,37.72
2022-08-03T17:09:18.189Z,38.00
2022-08-03T17:11:48.756Z,38.21
2022-08-03T17:14:22.115Z,38.34
2022-08-03T17:16:54.153Z,38.21
2022-08-03T17:19:24.860Z,37.94
2022-08-03T17:22:10.721Z,37.45
2022-08-03T17:25:01.715Z,37.66
2022-08-03T17:28:48.990Z,37.77
2022-08-03T17:30:44.019Z,37.56
2022-08-03T17:33:21.589Z,37.62
2022-08-03T17:35:55.309Z,37.52
2022-08-03T17:38:32.011Z,37.12
2022-08-03T17:41:10.837Z,36.89
2022-08-03T17:44:13.227Z,36.91
2022-08-03T17:46:31.126Z,36.69
2022-08-03T17:49:01.447Z,36.55
2022-08-03T17:51:48.812Z,36.34
2022-08-03T17:55:54.862Z,36.03
2022-08-03T17:58:03.478Z,36.08
2022-08-03T18:00:51.621Z,36.21
2022-08-03T18:03:57.847Z,36.21
2022-08-03T18:06:29.107Z,36.14
2022-08-03T18:09:00.006Z,36.17
2022-08-03T18:11:35.913Z,35.98
2022-08-03T18:14:20.339Z,35.81
2022-08-03T18:17:03.907Z,35.66
2022-08-03T18:20:02.858Z,35.52
2022-08-03T18:22:25.246Z,35.46
2022-08-03T18:24:54.718Z,35.33
2022-08-03T18:27:23.493Z,34.95
2022-08-03T18:30:15.153Z,34.89
2022-08-03T18:34:16.917Z,34.59
2022-08-03T18:36:03.063Z,34.49
2022-08-03T18:38:32.848Z,34.49
2022-08-03T18:41:13.279Z,34.43
2022-08-03T18:44:06.780Z,34.37
2022-08-03T18:46:41.124Z,34.23
2022-08-03T18:49:32.621Z,33.97
2022-08-03T18:52:12.391Z,33.94
2022-08-03T18:55:20.331Z,33.84
2022-08-03T18:58:17.995Z,33.67
2022-08-03T19:00:59.167Z,33.36
2022-08-03T19:03:43.174Z,33.15
2022-08-03T19:06:20.364Z,32.88
2022-08-03T19:09:12.561Z,32.91
2022-08-03T19:14:47.472Z,32.56
2022-08-03T19:17:14.732Z,32.44
2022-08-03T19:19:51.112Z,31.69
2022-08-03T19:22:24.220Z,31.51
2022-08-03T19:24:53.515Z,31.22
2022-08-03T19:27:26.876Z,31.42
2022-08-03T19:30:01.251Z,30.94
2022-08-03T19:32:33.242Z,30.77
2022-08-03T19:37:57.121Z,30.74
2022-08-03T19:40:29.202Z,30.49
2022-08-03T19:43:04.423Z,30.49
2022-08-03T19:46:04.468Z,30.53
2022-08-03T19:48:34.621Z,30.58
2022-08-03T19:51:04.953Z,30.30
2022-08-03T19:56:32.806Z,29.96
2022-08-03T19:59:02.101Z,29.66
2022-08-03T20:01:32.518Z,29.72
2022-08-03T20:04:18.829Z,29.91
2022-08-03T20:06:50.813Z,29.80
2022-08-03T20:09:21.502Z,29.77
2022-08-03T20:11:52.712Z,29.65
2022-08-03T20:14:20.929Z,29.71
2022-08-03T20:16:56.552Z,29.55
2022-08-03T20:19:32.503Z,29.45
2022-08-03T20:22:02.272Z,29.49
2022-08-03T20:24:34.492Z,29.41
2022-08-03T20:27:07.858Z,29.47
2022-08-03T20:30:05.469Z,29.37
2022-08-03T20:32:41.581Z,29.17
2022-08-03T20:35:13.514Z,29.10
2022-08-03T20:37:41.376Z,29.03
2022-08-03T20:40:09.948Z,29.06
2022-08-03T20:42:40.955Z,29.05
2022-08-03T20:45:13.867Z,28.88
2022-08-03T20:48:00.865Z,28.53
2022-08-03T20:50:31.357Z,28.62
2022-08-03T20:52:59.257Z,28.64
2022-08-03T20:55:48.005Z,28.64
2022-08-03T20:58:25.024Z,28.39
2022-08-03T21:00:55.743Z,28.37
2022-08-03T21:03:23.327Z,28.29
2022-08-03T21:05:53.791Z,28.20
2022-08-03T21:08:25.544Z,27.80
2022-08-03T21:10:53.984Z,27.83
2022-08-03T21:13:03.181Z,30.11
2022-08-03T21:13:09.692Z,32.83
2022-08-03T21:13:12.957Z,30.80
2022-08-03T21:13:25.015Z,27.82
2022-08-03T21:16:03.209Z,27.97
2022-08-03T21:19:03.580Z,27.79
2022-08-03T21:21:32.814Z,27.59
2022-08-03T21:24:03.454Z,27.53
2022-08-03T21:26:36.799Z,27.51
2022-08-03T21:29:08.214Z,27.53
2022-08-03T21:31:39.188Z,27.40
2022-08-03T21:34:06.844Z,27.24
2022-08-03T21:36:37.293Z,27.16
2022-08-03T21:39:10.419Z,27.14
2022-08-03T21:41:39.705Z,27.14
2022-08-03T21:44:07.897Z,27.10
2022-08-03T21:46:41.100Z,26.91
2022-08-03T21:50:07.565Z,27.05
2022-08-03T21:52:07.675Z,27.04
2022-08-03T21:54:44.294Z,27.02
2022-08-03T21:57:28.742Z,27.00
2022-08-03T22:00:14.625Z,26.80
2022-08-03T22:02:54.435Z,26.58
2022-08-03T22:05:42.742Z,26.78
2022-08-03T22:08:18.539Z,26.61
2022-08-03T22:10:51.276Z,26.48
2022-08-03T22:13:42.913Z,26.39
2022-08-03T22:16:15.342Z,26.40
2022-08-03T22:18:47.355Z,26.37
2022-08-03T22:21:16.798Z,26.27
2022-08-03T22:24:00.190Z,26.26
2022-08-03T22:26:35.854Z,26.13
2022-08-03T22:29:11.033Z,26.31
2022-08-03T22:31:58.514Z,26.20
2022-08-03T22:34:31.159Z,25.92
2022-08-03T22:37:05.154Z,26.11
2022-08-03T22:39:33.701Z,26.10
2022-08-03T22:42:07.911Z,26.06
2022-08-03T22:44:36.490Z,25.93
2022-08-03T22:47:04.972Z,25.85
2022-08-03T22:49:32.581Z,25.86
2022-08-03T22:52:02.799Z,25.89
2022-08-03T22:54:32.174Z,25.93
2022-08-03T22:57:00.720Z,25.82
2022-08-03T22:59:40.545Z,25.74
2022-08-03T23:02:21.264Z,25.51
2022-08-03T23:04:53.836Z,25.47
2022-08-03T23:07:34.883Z,25.66
2022-08-03T23:10:08.231Z,25.50
2022-08-03T23:12:39.080Z,25.37
2022-08-03T23:15:13.152Z,25.42
2022-08-03T23:17:58.681Z,25.10
2022-08-03T23:20:29.409Z,25.05
2022-08-03T23:22:57.850Z,25.21
2022-08-03T23:25:27.588Z,25.24
2022-08-03T23:28:05.198Z,25.11
2022-08-03T23:30:39.334Z,25.08
2022-08-03T23:33:09.721Z,25.16
2022-08-03T23:36:27.629Z,25.16
2022-08-03T23:38:46.343Z,25.12
2022-08-03T23:41:15.108Z,25.17
2022-08-03T23:43:51.236Z,24.94
2022-08-03T23:46:24.041Z,24.71
2022-08-03T23:48:51.770Z,24.69
2022-08-03T23:51:55.717Z,24.71
2022-08-03T23:54:42.098Z,24.59
2022-08-03T23:57:29.923Z,24.65
